sensor_id;sensor_type;location;lat;lon;timestamp;P1;durP1;ratioP1;P2;durP2;ratioP2
38853;SDS011;24606;51.992;4.198;2023-02-13T00:04:32;4.22;;;3.38;;
38853;SDS011;24606;51.992;4.198;2023-02-13T00:14:38;5.38;;;3.38;;
38853;SDS011;24606;51.992;4.198;2023-02-13T00:24:43;4.38;;;3.58;;
38853;SDS011;24606;51.992;4.198;2023-02-13T00:29:45;4.05;;;3.05;;
38853;SDS011;24606;51.992;4.198;2023-02-13T00:34:47;5.22;;;3.67;;
38853;SDS011;24606;51.992;4.198;2023-02-13T00:39:51;4.25;;;3.15;;
38853;SDS011;24606;51.992;4.198;2023-02-13T00:44:53;6.88;;;3.53;;
38853;SDS011;24606;51.992;4.198;2023-02-13T00:49:55;4.88;;;3.65;;
38853;SDS011;24606;51.992;4.198;2023-02-13T00:54:58;5.68;;;3.92;;
38853;SDS011;24606;51.992;4.198;2023-02-13T01:00:00;5.38;;;3.38;;
38853;SDS011;24606;51.992;4.198;2023-02-13T01:10:06;7.90;;;4.50;;
38853;SDS011;24606;51.992;4.198;2023-02-13T01:15:08;3.92;;;3.10;;
38853;SDS011;24606;51.992;4.198;2023-02-13T01:20:11;5.18;;;3.60;;
38853;SDS011;24606;51.992;4.198;2023-02-13T01:25:15;5.85;;;3.22;;
38853;SDS011;24606;51.992;4.198;2023-02-13T01:30:17;6.25;;;3.42;;
38853;SDS011;24606;51.992;4.198;2023-02-13T01:35:19;3.60;;;3.10;;
38853;SDS011;24606;51.992;4.198;2023-02-13T01:40:23;3.72;;;3.03;;
38853;SDS011;24606;51.992;4.198;2023-02-13T01:45:29;3.53;;;2.97;;
38853;SDS011;24606;51.992;4.198;2023-02-13T01:50:32;4.18;;;3.13;;
38853;SDS011;24606;51.992;4.198;2023-02-13T01:55:42;6.47;;;3.40;;
38853;SDS011;24606;51.992;4.198;2023-02-13T02:00:48;5.33;;;3.50;;
38853;SDS011;24606;51.992;4.198;2023-02-13T02:05:50;4.85;;;3.47;;
38853;SDS011;24606;51.992;4.198;2023-02-13T02:10:57;3.90;;;3.22;;
38853;SDS011;24606;51.992;4.198;2023-02-13T02:16:03;4.10;;;3.28;;
38853;SDS011;24606;51.992;4.198;2023-02-13T02:26:47;4.15;;;3.40;;
38853;SDS011;24606;51.992;4.198;2023-02-13T02:32:04;4.18;;;3.10;;
38853;SDS011;24606;51.992;4.198;2023-02-13T02:37:35;3.90;;;2.83;;
38853;SDS011;24606;51.992;4.198;2023-02-13T02:42:50;5.38;;;3.75;;
38853;SDS011;24606;51.992;4.198;2023-02-13T02:48:04;4.45;;;3.03;;
38853;SDS011;24606;51.992;4.198;2023-02-13T02:53:30;6.45;;;3.78;;
38853;SDS011;24606;51.992;4.198;2023-02-13T02:58:39;10.48;;;3.42;;
38853;SDS011;24606;51.992;4.198;2023-02-13T03:04:04;5.07;;;3.60;;
38853;SDS011;24606;51.992;4.198;2023-02-13T03:09:25;4.20;;;3.35;;
38853;SDS011;24606;51.992;4.198;2023-02-13T03:14:48;4.32;;;3.35;;
38853;SDS011;24606;51.992;4.198;2023-02-13T03:19:54;3.72;;;3.03;;
38853;SDS011;24606;51.992;4.198;2023-02-13T03:25:17;4.88;;;3.28;;
38853;SDS011;24606;51.992;4.198;2023-02-13T03:30:35;3.75;;;3.05;;
38853;SDS011;24606;51.992;4.198;2023-02-13T03:35:48;4.10;;;3.30;;
38853;SDS011;24606;51.992;4.198;2023-02-13T03:41:17;5.25;;;3.20;;
38853;SDS011;24606;51.992;4.198;2023-02-13T03:46:22;3.38;;;2.85;;
38853;SDS011;24606;51.992;4.198;2023-02-13T03:51:27;5.70;;;3.15;;
38853;SDS011;24606;51.992;4.198;2023-02-13T03:56:33;5.28;;;3.75;;
38853;SDS011;24606;51.992;4.198;2023-02-13T04:01:59;3.83;;;2.95;;
38853;SDS011;24606;51.992;4.198;2023-02-13T04:07:05;2.88;;;2.45;;
38853;SDS011;24606;51.992;4.198;2023-02-13T04:12:11;4.03;;;3.28;;
38853;SDS011;24606;51.992;4.198;2023-02-13T04:17:20;3.92;;;2.92;;
38853;SDS011;24606;51.992;4.198;2023-02-13T04:22:28;4.00;;;2.92;;
38853;SDS011;24606;51.992;4.198;2023-02-13T04:27:30;4.32;;;3.10;;
38853;SDS011;24606;51.992;4.198;2023-02-13T04:32:32;3.42;;;2.92;;
38853;SDS011;24606;51.992;4.198;2023-02-13T04:37:36;4.77;;;3.07;;
38853;SDS011;24606;51.992;4.198;2023-02-13T04:42:38;3.40;;;2.90;;
38853;SDS011;24606;51.992;4.198;2023-02-13T04:47:40;4.20;;;3.13;;
38853;SDS011;24606;51.992;4.198;2023-02-13T04:52:43;3.03;;;2.72;;
38853;SDS011;24606;51.992;4.198;2023-02-13T04:57:45;4.80;;;2.83;;
38853;SDS011;24606;51.992;4.198;2023-02-13T05:02:47;4.10;;;3.42;;
38853;SDS011;24606;51.992;4.198;2023-02-13T05:07:50;4.55;;;3.30;;
38853;SDS011;24606;51.992;4.198;2023-02-13T05:12:52;3.42;;;2.85;;
38853;SDS011;24606;51.992;4.198;2023-02-13T05:17:54;4.07;;;3.05;;
38853;SDS011;24606;51.992;4.198;2023-02-13T05:22:57;4.43;;;2.83;;
38853;SDS011;24606;51.992;4.198;2023-02-13T05:28:28;4.22;;;3.13;;
38853;SDS011;24606;51.992;4.198;2023-02-13T05:33:48;4.35;;;3.30;;
38853;SDS011;24606;51.992;4.198;2023-02-13T05:38:51;4.53;;;3.55;;
38853;SDS011;24606;51.992;4.198;2023-02-13T05:43:53;4.13;;;2.90;;
38853;SDS011;24606;51.992;4.198;2023-02-13T05:48:55;7.90;;;3.20;;
38853;SDS011;24606;51.992;4.198;2023-02-13T05:53:58;6.07;;;3.33;;
38853;SDS011;24606;51.992;4.198;2023-02-13T05:59:00;5.18;;;3.22;;
38853;SDS011;24606;51.992;4.198;2023-02-13T06:04:02;6.22;;;3.28;;
38853;SDS011;24606;51.992;4.198;2023-02-13T06:09:05;6.15;;;3.20;;
38853;SDS011;24606;51.992;4.198;2023-02-13T06:14:07;6.28;;;3.00;;
38853;SDS011;24606;51.992;4.198;2023-02-13T06:19:09;3.33;;;2.90;;
38853;SDS011;24606;51.992;4.198;2023-02-13T06:24:12;4.25;;;2.90;;
38853;SDS011;24606;51.992;4.198;2023-02-13T06:29:14;4.60;;;2.70;;
38853;SDS011;24606;51.992;4.198;2023-02-13T06:34:16;3.75;;;3.05;;
38853;SDS011;24606;51.992;4.198;2023-02-13T06:39:19;4.53;;;2.63;;
38853;SDS011;24606;51.992;4.198;2023-02-13T06:44:21;3.17;;;2.72;;
38853;SDS011;24606;51.992;4.198;2023-02-13T06:49:23;6.03;;;3.03;;
38853;SDS011;24606;51.992;4.198;2023-02-13T06:54:26;4.47;;;2.97;;
38853;SDS011;24606;51.992;4.198;2023-02-13T06:59:28;4.70;;;2.72;;
38853;SDS011;24606;51.992;4.198;2023-02-13T07:14:48;4.53;;;3.13;;
38853;SDS011;24606;51.992;4.198;2023-02-13T07:19:49;4.80;;;2.85;;
38853;SDS011;24606;51.992;4.198;2023-02-13T07:24:51;3.70;;;2.50;;
38853;SDS011;24606;51.992;4.198;2023-02-13T07:29:54;3.92;;;3.13;;
38853;SDS011;24606;51.992;4.198;2023-02-13T07:34:56;7.30;;;3.15;;
38853;SDS011;24606;51.992;4.198;2023-02-13T07:39:58;3.53;;;2.70;;
38853;SDS011;24606;51.992;4.198;2023-02-13T07:45:02;13.73;;;3.08;;
38853;SDS011;24606;51.992;4.198;2023-02-13T07:50:06;4.40;;;2.75;;
38853;SDS011;24606;51.992;4.198;2023-02-13T07:55:09;5.57;;;2.85;;
38853;SDS011;24606;51.992;4.198;2023-02-13T08:00:13;4.32;;;2.35;;
38853;SDS011;24606;51.992;4.198;2023-02-13T08:05:16;3.97;;;2.40;;
38853;SDS011;24606;51.992;4.198;2023-02-13T08:10:18;3.08;;;2.42;;
38853;SDS011;24606;51.992;4.198;2023-02-13T08:15:39;4.90;;;2.63;;
38853;SDS011;24606;51.992;4.198;2023-02-13T08:20:43;4.65;;;2.78;;
38853;SDS011;24606;51.992;4.198;2023-02-13T08:25:45;5.72;;;2.95;;
38853;SDS011;24606;51.992;4.198;2023-02-13T08:30:50;5.45;;;3.03;;
38853;SDS011;24606;51.992;4.198;2023-02-13T08:35:52;5.03;;;3.30;;
38853;SDS011;24606;51.992;4.198;2023-02-13T08:40:55;5.07;;;3.13;;
38853;SDS011;24606;51.992;4.198;2023-02-13T08:45:58;5.95;;;2.92;;
38853;SDS011;24606;51.992;4.198;2023-02-13T08:51:04;6.60;;;3.10;;
38853;SDS011;24606;51.992;4.198;2023-02-13T08:56:06;4.72;;;3.22;;
38853;SDS011;24606;51.992;4.198;2023-02-13T09:01:09;6.65;;;2.90;;
38853;SDS011;24606;51.992;4.198;2023-02-13T09:06:11;6.57;;;3.38;;
38853;SDS011;24606;51.992;4.198;2023-02-13T09:11:13;10.93;;;3.85;;
38853;SDS011;24606;51.992;4.198;2023-02-13T09:16:16;8.85;;;3.50;;
38853;SDS011;24606;51.992;4.198;2023-02-13T09:21:19;7.72;;;3.35;;
38853;SDS011;24606;51.992;4.198;2023-02-13T09:26:22;7.40;;;3.70;;
38853;SDS011;24606;51.992;4.198;2023-02-13T09:36:28;4.68;;;3.58;;
38853;SDS011;24606;51.992;4.198;2023-02-13T09:41:31;5.22;;;3.45;;
38853;SDS011;24606;51.992;4.198;2023-02-13T09:46:38;6.25;;;4.43;;
38853;SDS011;24606;51.992;4.198;2023-02-13T09:51:41;5.93;;;3.70;;
38853;SDS011;24606;51.992;4.198;2023-02-13T09:56:46;8.60;;;4.18;;
38853;SDS011;24606;51.992;4.198;2023-02-13T10:01:55;7.65;;;4.30;;
38853;SDS011;24606;51.992;4.198;2023-02-13T10:07:09;6.40;;;3.72;;
38853;SDS011;24606;51.992;4.198;2023-02-13T10:12:25;6.93;;;4.22;;
38853;SDS011;24606;51.992;4.198;2023-02-13T10:17:52;4.90;;;4.07;;
38853;SDS011;24606;51.992;4.198;2023-02-13T10:22:58;6.50;;;4.05;;
38853;SDS011;24606;51.992;4.198;2023-02-13T10:28:06;6.30;;;4.32;;
38853;SDS011;24606;51.992;4.198;2023-02-13T10:33:15;6.88;;;3.90;;
38853;SDS011;24606;51.992;4.198;2023-02-13T10:38:21;6.07;;;4.30;;
38853;SDS011;24606;51.992;4.198;2023-02-13T10:43:24;10.63;;;4.10;;
38853;SDS011;24606;51.992;4.198;2023-02-13T10:48:40;7.85;;;5.13;;
38853;SDS011;24606;51.992;4.198;2023-02-13T10:54:00;5.78;;;4.18;;
38853;SDS011;24606;51.992;4.198;2023-02-13T10:59:25;11.75;;;4.93;;
38853;SDS011;24606;51.992;4.198;2023-02-13T11:04:43;5.82;;;4.32;;
38853;SDS011;24606;51.992;4.198;2023-02-13T11:09:46;8.18;;;4.75;;
38853;SDS011;24606;51.992;4.198;2023-02-13T11:14:55;6.13;;;4.35;;
38853;SDS011;24606;51.992;4.198;2023-02-13T11:19:59;5.60;;;4.82;;
38853;SDS011;24606;51.992;4.198;2023-02-13T11:25:05;7.03;;;4.18;;
38853;SDS011;24606;51.992;4.198;2023-02-13T11:30:28;8.05;;;4.53;;
38853;SDS011;24606;51.992;4.198;2023-02-13T11:35:34;9.15;;;4.30;;
38853;SDS011;24606;51.992;4.198;2023-02-13T11:40:36;9.35;;;4.80;;
38853;SDS011;24606;51.992;4.198;2023-02-13T11:45:39;6.47;;;4.25;;
38853;SDS011;24606;51.992;4.198;2023-02-13T11:50:51;6.70;;;4.78;;
38853;SDS011;24606;51.992;4.198;2023-02-13T11:56:02;6.45;;;4.28;;
38853;SDS011;24606;51.992;4.198;2023-02-13T12:01:20;5.97;;;4.45;;
38853;SDS011;24606;51.992;4.198;2023-02-13T12:06:28;7.55;;;4.55;;
38853;SDS011;24606;51.992;4.198;2023-02-13T12:11:39;6.30;;;4.63;;
38853;SDS011;24606;51.992;4.198;2023-02-13T12:16:45;6.50;;;4.45;;
38853;SDS011;24606;51.992;4.198;2023-02-13T12:21:58;5.18;;;4.35;;
38853;SDS011;24606;51.992;4.198;2023-02-13T12:27:11;7.10;;;4.13;;
38853;SDS011;24606;51.992;4.198;2023-02-13T12:32:20;7.72;;;4.68;;
38853;SDS011;24606;51.992;4.198;2023-02-13T12:37:38;7.25;;;4.50;;
38853;SDS011;24606;51.992;4.198;2023-02-13T12:42:49;4.75;;;3.55;;
38853;SDS011;24606;51.992;4.198;2023-02-13T12:48:09;8.15;;;4.50;;
38853;SDS011;24606;51.992;4.198;2023-02-13T12:53:33;5.32;;;3.97;;
38853;SDS011;24606;51.992;4.198;2023-02-13T12:59:07;6.25;;;4.30;;
38853;SDS011;24606;51.992;4.198;2023-02-13T13:04:16;7.00;;;3.70;;
38853;SDS011;24606;51.992;4.198;2023-02-13T13:09:34;5.95;;;3.90;;
38853;SDS011;24606;51.992;4.198;2023-02-13T13:14:52;7.45;;;3.88;;
38853;SDS011;24606;51.992;4.198;2023-02-13T13:20:21;6.10;;;3.75;;
38853;SDS011;24606;51.992;4.198;2023-02-13T13:25:44;6.50;;;3.90;;
38853;SDS011;24606;51.992;4.198;2023-02-13T13:30:51;5.40;;;4.07;;
38853;SDS011;24606;51.992;4.198;2023-02-13T13:35:56;10.30;;;6.15;;
38853;SDS011;24606;51.992;4.198;2023-02-13T13:41:07;7.35;;;4.50;;
38853;SDS011;24606;51.992;4.198;2023-02-13T13:46:16;6.50;;;3.55;;
38853;SDS011;24606;51.992;4.198;2023-02-13T13:51:23;7.50;;;4.28;;
38853;SDS011;24606;51.992;4.198;2023-02-13T13:56:26;7.05;;;3.60;;
38853;SDS011;24606;51.992;4.198;2023-02-13T14:07:36;6.95;;;4.00;;
38853;SDS011;24606;51.992;4.198;2023-02-13T14:12:46;9.40;;;3.80;;
38853;SDS011;24606;51.992;4.198;2023-02-13T14:17:52;6.03;;;3.35;;
38853;SDS011;24606;51.992;4.198;2023-02-13T14:22:54;4.72;;;3.60;;
38853;SDS011;24606;51.992;4.198;2023-02-13T14:33:02;4.75;;;3.58;;
38853;SDS011;24606;51.992;4.198;2023-02-13T14:38:06;6.50;;;3.72;;
38853;SDS011;24606;51.992;4.198;2023-02-13T14:43:29;10.00;;;3.20;;
38853;SDS011;24606;51.992;4.198;2023-02-13T14:48:39;7.30;;;3.55;;
38853;SDS011;24606;51.992;4.198;2023-02-13T14:53:46;6.90;;;3.08;;
38853;SDS011;24606;51.992;4.198;2023-02-13T14:58:54;3.67;;;2.90;;
38853;SDS011;24606;51.992;4.198;2023-02-13T15:04:04;5.85;;;2.70;;
38853;SDS011;24606;51.992;4.198;2023-02-13T15:09:21;4.60;;;2.72;;
38853;SDS011;24606;51.992;4.198;2023-02-13T15:14:33;5.25;;;2.63;;
38853;SDS011;24606;51.992;4.198;2023-02-13T15:19:36;3.78;;;2.70;;
38853;SDS011;24606;51.992;4.198;2023-02-13T15:24:43;4.35;;;2.72;;
38853;SDS011;24606;51.992;4.198;2023-02-13T15:29:55;6.95;;;3.05;;
38853;SDS011;24606;51.992;4.198;2023-02-13T15:34:59;7.32;;;3.05;;
38853;SDS011;24606;51.992;4.198;2023-02-13T15:40:13;7.20;;;3.22;;
38853;SDS011;24606;51.992;4.198;2023-02-13T15:45:19;5.32;;;2.63;;
38853;SDS011;24606;51.992;4.198;2023-02-13T15:50:23;8.27;;;2.88;;
38853;SDS011;24606;51.992;4.198;2023-02-13T15:55:30;4.68;;;2.85;;
38853;SDS011;24606;51.992;4.198;2023-02-13T16:00:38;3.28;;;2.38;;
38853;SDS011;24606;51.992;4.198;2023-02-13T16:05:43;7.03;;;2.40;;
38853;SDS011;24606;51.992;4.198;2023-02-13T16:10:46;3.75;;;2.38;;
38853;SDS011;24606;51.992;4.198;2023-02-13T16:15:50;5.25;;;2.35;;
38853;SDS011;24606;51.992;4.198;2023-02-13T16:20:52;3.75;;;2.50;;
38853;SDS011;24606;51.992;4.198;2023-02-13T16:25:59;4.18;;;2.10;;
38853;SDS011;24606;51.992;4.198;2023-02-13T16:31:05;8.68;;;2.45;;
38853;SDS011;24606;51.992;4.198;2023-02-13T16:36:16;2.47;;;2.10;;
38853;SDS011;24606;51.992;4.198;2023-02-13T16:41:27;6.07;;;2.20;;
38853;SDS011;24606;51.992;4.198;2023-02-13T16:46:33;4.45;;;2.10;;
38853;SDS011;24606;51.992;4.198;2023-02-13T16:51:37;7.22;;;2.40;;
38853;SDS011;24606;51.992;4.198;2023-02-13T16:56:43;3.85;;;2.40;;
38853;SDS011;24606;51.992;4.198;2023-02-13T17:01:48;4.43;;;2.10;;
38853;SDS011;24606;51.992;4.198;2023-02-13T17:07:19;2.65;;;2.20;;
38853;SDS011;24606;51.992;4.198;2023-02-13T17:12:23;5.00;;;2.90;;
38853;SDS011;24606;51.992;4.198;2023-02-13T17:17:27;9.30;;;2.75;;
38853;SDS011;24606;51.992;4.198;2023-02-13T17:22:31;6.82;;;3.45;;
38853;SDS011;24606;51.992;4.198;2023-02-13T17:27:36;9.68;;;2.75;;
38853;SDS011;24606;51.992;4.198;2023-02-13T17:32:39;5.63;;;2.55;;
38853;SDS011;24606;51.992;4.198;2023-02-13T17:37:42;8.93;;;2.75;;
38853;SDS011;24606;51.992;4.198;2023-02-13T17:42:45;7.20;;;2.60;;
38853;SDS011;24606;51.992;4.198;2023-02-13T17:47:49;16.63;;;2.78;;
38853;SDS011;24606;51.992;4.198;2023-02-13T17:52:51;7.68;;;2.40;;
38853;SDS011;24606;51.992;4.198;2023-02-13T17:57:54;10.45;;;3.88;;
38853;SDS011;24606;51.992;4.198;2023-02-13T18:02:58;10.52;;;4.28;;
38853;SDS011;24606;51.992;4.198;2023-02-13T18:08:01;9.05;;;4.35;;
38853;SDS011;24606;51.992;4.198;2023-02-13T18:13:03;12.20;;;4.53;;
38853;SDS011;24606;51.992;4.198;2023-02-13T18:18:06;16.10;;;6.45;;
38853;SDS011;24606;51.992;4.198;2023-02-13T18:23:09;11.10;;;4.90;;
38853;SDS011;24606;51.992;4.198;2023-02-13T18:28:12;9.80;;;5.07;;
38853;SDS011;24606;51.992;4.198;2023-02-13T18:33:16;9.98;;;5.00;;
38853;SDS011;24606;51.992;4.198;2023-02-13T18:38:17;15.60;;;6.85;;
38853;SDS011;24606;51.992;4.198;2023-02-13T18:43:19;14.05;;;6.75;;
38853;SDS011;24606;51.992;4.198;2023-02-13T18:53:25;19.52;;;8.20;;
38853;SDS011;24606;51.992;4.198;2023-02-13T18:58:27;16.17;;;7.93;;
38853;SDS011;24606;51.992;4.198;2023-02-13T19:08:32;12.18;;;5.55;;
38853;SDS011;24606;51.992;4.198;2023-02-13T19:18:38;10.83;;;4.23;;
38853;SDS011;24606;51.992;4.198;2023-02-13T19:23:40;9.02;;;4.05;;
38853;SDS011;24606;51.992;4.198;2023-02-13T19:28:42;7.78;;;3.78;;
38853;SDS011;24606;51.992;4.198;2023-02-13T19:33:46;7.38;;;3.53;;
38853;SDS011;24606;51.992;4.198;2023-02-13T19:38:52;5.68;;;3.42;;
38853;SDS011;24606;51.992;4.198;2023-02-13T19:43:54;7.97;;;3.55;;
38853;SDS011;24606;51.992;4.198;2023-02-13T19:48:58;7.72;;;3.40;;
38853;SDS011;24606;51.992;4.198;2023-02-13T19:54:02;7.82;;;4.70;;
38853;SDS011;24606;51.992;4.198;2023-02-13T19:59:05;7.95;;;4.00;;
38853;SDS011;24606;51.992;4.198;2023-02-13T20:04:12;8.05;;;4.28;;
38853;SDS011;24606;51.992;4.198;2023-02-13T20:09:14;9.05;;;3.88;;
38853;SDS011;24606;51.992;4.198;2023-02-13T20:14:16;9.93;;;4.20;;
38853;SDS011;24606;51.992;4.198;2023-02-13T20:24:21;9.15;;;3.75;;
38853;SDS011;24606;51.992;4.198;2023-02-13T20:29:23;7.90;;;3.72;;
38853;SDS011;24606;51.992;4.198;2023-02-13T20:34:26;12.65;;;4.22;;
38853;SDS011;24606;51.992;4.198;2023-02-13T20:39:28;15.68;;;4.93;;
38853;SDS011;24606;51.992;4.198;2023-02-13T20:44:31;9.18;;;4.07;;
38853;SDS011;24606;51.992;4.198;2023-02-13T20:49:34;12.43;;;3.88;;
38853;SDS011;24606;51.992;4.198;2023-02-13T20:54:36;17.30;;;3.95;;
38853;SDS011;24606;51.992;4.198;2023-02-13T20:59:38;10.82;;;4.85;;
38853;SDS011;24606;51.992;4.198;2023-02-13T21:04:41;13.63;;;4.35;;
38853;SDS011;24606;51.992;4.198;2023-02-13T21:09:43;11.70;;;4.97;;
38853;SDS011;24606;51.992;4.198;2023-02-13T21:14:45;11.93;;;4.85;;
38853;SDS011;24606;51.992;4.198;2023-02-13T21:19:49;12.20;;;4.30;;
38853;SDS011;24606;51.992;4.198;2023-02-13T21:24:50;13.75;;;4.50;;
38853;SDS011;24606;51.992;4.198;2023-02-13T21:29:52;13.50;;;5.32;;
38853;SDS011;24606;51.992;4.198;2023-02-13T21:34:56;10.05;;;4.50;;
38853;SDS011;24606;51.992;4.198;2023-02-13T21:39:58;14.25;;;5.05;;
38853;SDS011;24606;51.992;4.198;2023-02-13T21:45:00;13.45;;;5.68;;
38853;SDS011;24606;51.992;4.198;2023-02-13T21:50:03;11.65;;;5.03;;
38853;SDS011;24606;51.992;4.198;2023-02-13T21:55:06;14.35;;;5.60;;
38853;SDS011;24606;51.992;4.198;2023-02-13T22:00:08;16.40;;;5.40;;
38853;SDS011;24606;51.992;4.198;2023-02-13T22:05:12;10.23;;;4.72;;
38853;SDS011;24606;51.992;4.198;2023-02-13T22:10:14;11.48;;;4.32;;
38853;SDS011;24606;51.992;4.198;2023-02-13T22:15:16;11.57;;;4.70;;
38853;SDS011;24606;51.992;4.198;2023-02-13T22:20:20;16.77;;;5.53;;
38853;SDS011;24606;51.992;4.198;2023-02-13T22:25:22;10.07;;;4.72;;
38853;SDS011;24606;51.992;4.198;2023-02-13T22:30:24;17.73;;;5.88;;
38853;SDS011;24606;51.992;4.198;2023-02-13T22:35:27;16.98;;;4.97;;
38853;SDS011;24606;51.992;4.198;2023-02-13T22:40:29;11.93;;;5.38;;
38853;SDS011;24606;51.992;4.198;2023-02-13T22:50:35;12.95;;;4.35;;
38853;SDS011;24606;51.992;4.198;2023-02-13T22:55:37;14.02;;;4.82;;
38853;SDS011;24606;51.992;4.198;2023-02-13T23:00:39;10.63;;;4.57;;
38853;SDS011;24606;51.992;4.198;2023-02-13T23:05:42;11.60;;;4.95;;
38853;SDS011;24606;51.992;4.198;2023-02-13T23:10:44;10.80;;;4.78;;
38853;SDS011;24606;51.992;4.198;2023-02-13T23:16:10;9.25;;;4.55;;
38853;SDS011;24606;51.992;4.198;2023-02-13T23:21:14;8.88;;;4.43;;
38853;SDS011;24606;51.992;4.198;2023-02-13T23:26:16;8.45;;;4.32;;
38853;SDS011;24606;51.992;4.198;2023-02-13T23:31:18;11.32;;;4.20;;
38853;SDS011;24606;51.992;4.198;2023-02-13T23:36:21;7.82;;;4.75;;
38853;SDS011;24606;51.992;4.198;2023-02-13T23:41:23;11.35;;;4.30;;
38853;SDS011;24606;51.992;4.198;2023-02-13T23:46:25;7.78;;;4.15;;
38853;SDS011;24606;51.992;4.198;2023-02-13T23:51:28;9.40;;;4.90;;
38853;SDS011;24606;51.992;4.198;2023-02-13T23:56:30;8.15;;;4.32;;
